sensor_id;sensor_type;location;lat;lon;timestamp;temperature;humidity
25963;DHT22;13760;52.588;13.406;2022-10-16T00:00:56;15.50;99.90
25963;DHT22;13760;52.588;13.406;2022-10-16T00:03:22;15.40;99.90
25963;DHT22;13760;52.588;13.406;2022-10-16T00:05:50;15.40;99.90
25963;DHT22;13760;52.588;13.406;2022-10-16T00:08:16;15.40;99.90
25963;DHT22;13760;52.588;13.406;2022-10-16T00:10:41;15.50;99.90
25963;DHT22;13760;52.588;13.406;2022-10-16T00:13:08;15.40;99.90
25963;DHT22;13760;52.588;13.406;2022-10-16T00:15:36;15.50;99.90
25963;DHT22;13760;52.588;13.406;2022-10-16T00:18:03;15.50;99.90
25963;DHT22;13760;52.588;13.406;2022-10-16T00:20:29;15.50;99.90
25963;DHT22;13760;52.588;13.406;2022-10-16T00:22:56;15.50;99.90
25963;DHT22;13760;52.588;13.406;2022-10-16T00:25:22;15.50;99.90
25963;DHT22;13760;52.588;13.406;2022-10-16T00:27:48;15.50;99.90
25963;DHT22;13760;52.588;13.406;2022-10-16T00:30:14;15.50;99.90
25963;DHT22;13760;52.588;13.406;2022-10-16T00:32:39;15.50;99.90
25963;DHT22;13760;52.588;13.406;2022-10-16T00:35:05;15.60;99.90
25963;DHT22;13760;52.588;13.406;2022-10-16T00:37:31;15.60;99.90
25963;DHT22;13760;52.588;13.406;2022-10-16T00:39:56;15.60;99.90
25963;DHT22;13760;52.588;13.406;2022-10-16T00:42:22;15.60;99.90
25963;DHT22;13760;52.588;13.406;2022-10-16T00:44:54;15.60;99.90
25963;DHT22;13760;52.588;13.406;2022-10-16T00:47:34;15.60;99.90
25963;DHT22;13760;52.588;13.406;2022-10-16T00:50:16;15.60;99.90
25963;DHT22;13760;52.588;13.406;2022-10-16T00:52:46;15.60;99.90
25963;DHT22;13760;52.588;13.406;2022-10-16T00:55:13;15.60;99.90
25963;DHT22;13760;52.588;13.406;2022-10-16T00:57:39;15.60;99.90
25963;DHT22;13760;52.588;13.406;2022-10-16T01:00:07;15.60;99.90
25963;DHT22;13760;52.588;13.406;2022-10-16T01:02:33;15.60;99.90
25963;DHT22;13760;52.588;13.406;2022-10-16T01:04:59;15.60;99.90
25963;DHT22;13760;52.588;13.406;2022-10-16T01:07:45;15.60;99.90
25963;DHT22;13760;52.588;13.406;2022-10-16T01:10:35;15.60;99.90
25963;DHT22;13760;52.588;13.406;2022-10-16T01:13:21;15.60;99.90
25963;DHT22;13760;52.588;13.406;2022-10-16T01:20:59;15.50;99.90
25963;DHT22;13760;52.588;13.406;2022-10-16T01:29:18;15.50;99.90
25963;DHT22;13760;52.588;13.406;2022-10-16T01:31:49;15.60;99.90
25963;DHT22;13760;52.588;13.406;2022-10-16T01:34:19;15.60;99.90
25963;DHT22;13760;52.588;13.406;2022-10-16T01:36:51;15.60;99.90
25963;DHT22;13760;52.588;13.406;2022-10-16T01:39:22;15.60;99.90
25963;DHT22;13760;52.588;13.406;2022-10-16T01:41:54;15.60;99.90
25963;DHT22;13760;52.588;13.406;2022-10-16T01:44:28;15.60;99.90
25963;DHT22;13760;52.588;13.406;2022-10-16T01:46:55;15.60;99.90
25963;DHT22;13760;52.588;13.406;2022-10-16T01:49:23;15.60;99.90
25963;DHT22;13760;52.588;13.406;2022-10-16T01:51:53;15.60;99.90
25963;DHT22;13760;52.588;13.406;2022-10-16T01:54:20;15.60;99.90
25963;DHT22;13760;52.588;13.406;2022-10-16T01:56:48;15.70;99.90
25963;DHT22;13760;52.588;13.406;2022-10-16T01:59:18;15.60;99.90
25963;DHT22;13760;52.588;13.406;2022-10-16T02:01:51;15.60;99.90
25963;DHT22;13760;52.588;13.406;2022-10-16T02:04:24;15.60;99.90
25963;DHT22;13760;52.588;13.406;2022-10-16T02:06:53;15.70;99.90
25963;DHT22;13760;52.588;13.406;2022-10-16T02:09:19;15.70;99.90
25963;DHT22;13760;52.588;13.406;2022-10-16T02:11:45;15.70;99.90
25963;DHT22;13760;52.588;13.406;2022-10-16T02:14:11;15.60;99.90
25963;DHT22;13760;52.588;13.406;2022-10-16T02:16:42;15.60;99.90
25963;DHT22;13760;52.588;13.406;2022-10-16T02:19:09;15.60;99.90
25963;DHT22;13760;52.588;13.406;2022-10-16T02:21:51;15.60;99.90
25963;DHT22;13760;52.588;13.406;2022-10-16T02:30:06;15.60;99.90
25963;DHT22;13760;52.588;13.406;2022-10-16T02:32:35;15.60;99.90
25963;DHT22;13760;52.588;13.406;2022-10-16T02:35:03;15.60;99.90
25963;DHT22;13760;52.588;13.406;2022-10-16T02:37:29;15.60;99.90
25963;DHT22;13760;52.588;13.406;2022-10-16T02:39:57;15.60;99.90
25963;DHT22;13760;52.588;13.406;2022-10-16T02:42:35;15.60;99.90
25963;DHT22;13760;52.588;13.406;2022-10-16T02:45:01;15.60;99.90
25963;DHT22;13760;52.588;13.406;2022-10-16T02:47:26;15.60;99.90
25963;DHT22;13760;52.588;13.406;2022-10-16T02:49:52;15.60;99.90
25963;DHT22;13760;52.588;13.406;2022-10-16T02:52:17;15.60;99.90
25963;DHT22;13760;52.588;13.406;2022-10-16T02:54:43;15.60;99.90
25963;DHT22;13760;52.588;13.406;2022-10-16T02:57:09;15.60;99.90
25963;DHT22;13760;52.588;13.406;2022-10-16T02:59:34;15.60;99.90
25963;DHT22;13760;52.588;13.406;2022-10-16T03:02:00;15.60;99.90
25963;DHT22;13760;52.588;13.406;2022-10-16T03:04:25;15.50;99.90
25963;DHT22;13760;52.588;13.406;2022-10-16T03:06:51;15.50;99.90
25963;DHT22;13760;52.588;13.406;2022-10-16T03:09:17;15.50;99.90
25963;DHT22;13760;52.588;13.406;2022-10-16T03:11:42;15.50;99.90
25963;DHT22;13760;52.588;13.406;2022-10-16T03:14:08;15.50;99.90
25963;DHT22;13760;52.588;13.406;2022-10-16T03:16:33;15.40;99.90
25963;DHT22;13760;52.588;13.406;2022-10-16T03:18:59;15.40;99.90
25963;DHT22;13760;52.588;13.406;2022-10-16T03:21:24;15.30;99.90
25963;DHT22;13760;52.588;13.406;2022-10-16T03:23:50;15.30;99.90
25963;DHT22;13760;52.588;13.406;2022-10-16T03:26:16;15.30;99.90
25963;DHT22;13760;52.588;13.406;2022-10-16T03:28:41;15.20;99.90
25963;DHT22;13760;52.588;13.406;2022-10-16T03:31:07;15.20;99.90
25963;DHT22;13760;52.588;13.406;2022-10-16T03:33:33;15.10;99.90
25963;DHT22;13760;52.588;13.406;2022-10-16T03:35:59;15.10;99.90
25963;DHT22;13760;52.588;13.406;2022-10-16T03:38:25;15.10;99.90
25963;DHT22;13760;52.588;13.406;2022-10-16T03:40:51;15.00;99.90
25963;DHT22;13760;52.588;13.406;2022-10-16T03:43:16;15.00;99.90
25963;DHT22;13760;52.588;13.406;2022-10-16T03:45:42;14.90;99.90
25963;DHT22;13760;52.588;13.406;2022-10-16T03:48:08;14.80;99.90
25963;DHT22;13760;52.588;13.406;2022-10-16T03:50:33;14.80;99.90
25963;DHT22;13760;52.588;13.406;2022-10-16T03:52:59;14.80;99.90
25963;DHT22;13760;52.588;13.406;2022-10-16T03:55:24;14.80;99.90
25963;DHT22;13760;52.588;13.406;2022-10-16T03:57:50;14.70;99.90
25963;DHT22;13760;52.588;13.406;2022-10-16T04:00:15;14.70;99.90
25963;DHT22;13760;52.588;13.406;2022-10-16T04:02:41;14.70;99.90
25963;DHT22;13760;52.588;13.406;2022-10-16T04:05:07;14.70;99.90
25963;DHT22;13760;52.588;13.406;2022-10-16T04:07:36;14.70;99.90
25963;DHT22;13760;52.588;13.406;2022-10-16T04:10:02;14.70;99.90
25963;DHT22;13760;52.588;13.406;2022-10-16T04:12:28;14.70;99.90
25963;DHT22;13760;52.588;13.406;2022-10-16T04:14:53;14.70;99.90
25963;DHT22;13760;52.588;13.406;2022-10-16T04:17:19;14.70;99.90
25963;DHT22;13760;52.588;13.406;2022-10-16T04:19:44;14.70;99.90
25963;DHT22;13760;52.588;13.406;2022-10-16T04:22:10;14.70;99.90
25963;DHT22;13760;52.588;13.406;2022-10-16T04:24:36;14.70;99.90
25963;DHT22;13760;52.588;13.406;2022-10-16T04:27:01;14.70;99.90
25963;DHT22;13760;52.588;13.406;2022-10-16T04:29:27;14.70;99.90
25963;DHT22;13760;52.588;13.406;2022-10-16T04:31:52;14.70;99.90
25963;DHT22;13760;52.588;13.406;2022-10-16T04:34:18;14.70;99.90
25963;DHT22;13760;52.588;13.406;2022-10-16T04:36:44;14.70;99.90
25963;DHT22;13760;52.588;13.406;2022-10-16T04:39:11;14.70;99.90
25963;DHT22;13760;52.588;13.406;2022-10-16T04:41:37;14.70;99.90
25963;DHT22;13760;52.588;13.406;2022-10-16T04:44:03;14.60;99.90
25963;DHT22;13760;52.588;13.406;2022-10-16T04:46:28;14.70;99.90
25963;DHT22;13760;52.588;13.406;2022-10-16T04:48:54;14.60;99.90
25963;DHT22;13760;52.588;13.406;2022-10-16T04:51:19;14.60;99.90
25963;DHT22;13760;52.588;13.406;2022-10-16T04:53:45;14.60;99.90
25963;DHT22;13760;52.588;13.406;2022-10-16T04:56:10;14.60;99.90
25963;DHT22;13760;52.588;13.406;2022-10-16T04:58:36;14.60;99.90
25963;DHT22;13760;52.588;13.406;2022-10-16T05:01:02;14.60;99.90
25963;DHT22;13760;52.588;13.406;2022-10-16T05:03:27;14.50;99.90
25963;DHT22;13760;52.588;13.406;2022-10-16T05:05:53;14.50;99.90
25963;DHT22;13760;52.588;13.406;2022-10-16T05:08:18;14.50;99.90
25963;DHT22;13760;52.588;13.406;2022-10-16T05:10:44;14.40;99.90
25963;DHT22;13760;52.588;13.406;2022-10-16T05:13:10;14.40;99.90
25963;DHT22;13760;52.588;13.406;2022-10-16T05:15:36;14.30;99.90
25963;DHT22;13760;52.588;13.406;2022-10-16T05:18:02;14.30;99.90
25963;DHT22;13760;52.588;13.406;2022-10-16T05:20:28;14.30;99.90
25963;DHT22;13760;52.588;13.406;2022-10-16T05:22:54;14.30;99.90
25963;DHT22;13760;52.588;13.406;2022-10-16T05:25:19;14.20;99.90
25963;DHT22;13760;52.588;13.406;2022-10-16T05:27:49;14.20;99.90
25963;DHT22;13760;52.588;13.406;2022-10-16T05:30:15;14.30;99.90
25963;DHT22;13760;52.588;13.406;2022-10-16T05:32:41;14.30;99.90
25963;DHT22;13760;52.588;13.406;2022-10-16T05:35:07;14.30;99.90
25963;DHT22;13760;52.588;13.406;2022-10-16T05:37:34;14.30;99.90
25963;DHT22;13760;52.588;13.406;2022-10-16T05:40:00;14.30;99.90
25963;DHT22;13760;52.588;13.406;2022-10-16T05:42:26;14.30;99.90
25963;DHT22;13760;52.588;13.406;2022-10-16T05:44:52;14.30;99.90
25963;DHT22;13760;52.588;13.406;2022-10-16T05:47:17;14.30;99.90
25963;DHT22;13760;52.588;13.406;2022-10-16T05:49:43;14.40;99.90
25963;DHT22;13760;52.588;13.406;2022-10-16T05:52:08;14.40;99.90
25963;DHT22;13760;52.588;13.406;2022-10-16T05:54:34;14.40;99.90
25963;DHT22;13760;52.588;13.406;2022-10-16T05:56:59;14.40;99.90
25963;DHT22;13760;52.588;13.406;2022-10-16T05:59:25;14.40;99.90
25963;DHT22;13760;52.588;13.406;2022-10-16T06:01:51;14.50;99.90
25963;DHT22;13760;52.588;13.406;2022-10-16T06:04:18;14.50;99.90
25963;DHT22;13760;52.588;13.406;2022-10-16T06:06:44;14.50;99.90
25963;DHT22;13760;52.588;13.406;2022-10-16T06:09:09;14.60;99.90
25963;DHT22;13760;52.588;13.406;2022-10-16T06:11:36;14.60;99.90
25963;DHT22;13760;52.588;13.406;2022-10-16T06:14:02;14.60;99.90
25963;DHT22;13760;52.588;13.406;2022-10-16T06:16:32;14.60;99.90
25963;DHT22;13760;52.588;13.406;2022-10-16T06:18:58;14.70;99.90
25963;DHT22;13760;52.588;13.406;2022-10-16T06:21:27;14.70;99.90
25963;DHT22;13760;52.588;13.406;2022-10-16T06:23:55;14.70;99.90
25963;DHT22;13760;52.588;13.406;2022-10-16T06:26:25;14.80;99.90
25963;DHT22;13760;52.588;13.406;2022-10-16T06:28:50;14.80;99.90
25963;DHT22;13760;52.588;13.406;2022-10-16T06:31:16;14.80;99.90
25963;DHT22;13760;52.588;13.406;2022-10-16T06:33:42;14.80;99.90
25963;DHT22;13760;52.588;13.406;2022-10-16T06:36:10;14.80;99.90
25963;DHT22;13760;52.588;13.406;2022-10-16T06:38:38;14.90;99.90
25963;DHT22;13760;52.588;13.406;2022-10-16T06:41:05;14.90;99.90
25963;DHT22;13760;52.588;13.406;2022-10-16T06:43:32;14.90;99.90
25963;DHT22;13760;52.588;13.406;2022-10-16T06:45:58;14.90;99.90
25963;DHT22;13760;52.588;13.406;2022-10-16T06:48:24;14.90;99.90
25963;DHT22;13760;52.588;13.406;2022-10-16T06:51:09;15.00;99.90
25963;DHT22;13760;52.588;13.406;2022-10-16T06:53:38;15.00;99.90
25963;DHT22;13760;52.588;13.406;2022-10-16T06:56:19;15.00;99.90
25963;DHT22;13760;52.588;13.406;2022-10-16T06:58:45;15.00;99.90
25963;DHT22;13760;52.588;13.406;2022-10-16T07:01:12;15.10;99.90
25963;DHT22;13760;52.588;13.406;2022-10-16T07:03:40;15.10;99.90
25963;DHT22;13760;52.588;13.406;2022-10-16T07:06:07;15.20;99.90
25963;DHT22;13760;52.588;13.406;2022-10-16T07:08:34;15.20;99.90
25963;DHT22;13760;52.588;13.406;2022-10-16T07:11:01;15.20;99.90
25963;DHT22;13760;52.588;13.406;2022-10-16T07:13:27;15.20;99.90
25963;DHT22;13760;52.588;13.406;2022-10-16T07:15:53;15.30;99.90
25963;DHT22;13760;52.588;13.406;2022-10-16T07:18:18;15.30;99.90
25963;DHT22;13760;52.588;13.406;2022-10-16T07:20:44;15.40;99.90
25963;DHT22;13760;52.588;13.406;2022-10-16T07:23:10;15.40;99.90
25963;DHT22;13760;52.588;13.406;2022-10-16T07:25:35;15.40;99.90
25963;DHT22;13760;52.588;13.406;2022-10-16T07:28:01;15.50;99.90
25963;DHT22;13760;52.588;13.406;2022-10-16T07:30:26;15.50;99.90
25963;DHT22;13760;52.588;13.406;2022-10-16T07:32:55;15.50;99.90
25963;DHT22;13760;52.588;13.406;2022-10-16T07:35:25;15.60;99.90
25963;DHT22;13760;52.588;13.406;2022-10-16T07:37:51;15.60;99.90
25963;DHT22;13760;52.588;13.406;2022-10-16T07:40:16;15.60;99.90
25963;DHT22;13760;52.588;13.406;2022-10-16T07:42:42;15.70;99.90
25963;DHT22;13760;52.588;13.406;2022-10-16T07:45:08;15.70;99.90
25963;DHT22;13760;52.588;13.406;2022-10-16T07:47:33;15.80;99.90
25963;DHT22;13760;52.588;13.406;2022-10-16T07:49:59;15.90;99.90
25963;DHT22;13760;52.588;13.406;2022-10-16T07:52:24;15.90;99.90
25963;DHT22;13760;52.588;13.406;2022-10-16T07:54:50;15.90;99.90
25963;DHT22;13760;52.588;13.406;2022-10-16T07:57:18;16.00;99.90
25963;DHT22;13760;52.588;13.406;2022-10-16T07:59:46;16.00;99.90
25963;DHT22;13760;52.588;13.406;2022-10-16T08:02:12;16.00;99.90
25963;DHT22;13760;52.588;13.406;2022-10-16T08:04:37;16.00;99.90
25963;DHT22;13760;52.588;13.406;2022-10-16T08:07:03;16.00;99.90
25963;DHT22;13760;52.588;13.406;2022-10-16T08:09:29;16.10;99.90
25963;DHT22;13760;52.588;13.406;2022-10-16T08:11:55;16.10;99.90
25963;DHT22;13760;52.588;13.406;2022-10-16T08:14:20;16.10;99.90
25963;DHT22;13760;52.588;13.406;2022-10-16T08:16:46;16.10;99.90
25963;DHT22;13760;52.588;13.406;2022-10-16T08:19:11;16.20;99.90
25963;DHT22;13760;52.588;13.406;2022-10-16T08:21:37;16.20;99.90
25963;DHT22;13760;52.588;13.406;2022-10-16T08:24:02;16.20;99.90
25963;DHT22;13760;52.588;13.406;2022-10-16T08:26:28;16.30;99.90
25963;DHT22;13760;52.588;13.406;2022-10-16T08:28:54;16.30;99.90
25963;DHT22;13760;52.588;13.406;2022-10-16T08:31:21;16.30;99.90
25963;DHT22;13760;52.588;13.406;2022-10-16T08:33:46;16.40;99.90
25963;DHT22;13760;52.588;13.406;2022-10-16T08:36:14;16.40;99.90
25963;DHT22;13760;52.588;13.406;2022-10-16T08:38:40;16.40;99.90
25963;DHT22;13760;52.588;13.406;2022-10-16T08:50:10;16.70;99.90
25963;DHT22;13760;52.588;13.406;2022-10-16T08:52:40;16.70;99.90
25963;DHT22;13760;52.588;13.406;2022-10-16T08:55:08;16.70;99.90
25963;DHT22;13760;52.588;13.406;2022-10-16T08:57:41;16.80;99.90
25963;DHT22;13760;52.588;13.406;2022-10-16T09:00:14;16.80;99.90
25963;DHT22;13760;52.588;13.406;2022-10-16T09:16:53;17.40;99.90
25963;DHT22;13760;52.588;13.406;2022-10-16T09:19:36;17.40;99.90
25963;DHT22;13760;52.588;13.406;2022-10-16T09:22:12;17.50;99.90
25963;DHT22;13760;52.588;13.406;2022-10-16T09:24:39;17.60;99.90
25963;DHT22;13760;52.588;13.406;2022-10-16T09:27:10;17.70;99.90
25963;DHT22;13760;52.588;13.406;2022-10-16T09:29:36;17.70;99.90
25963;DHT22;13760;52.588;13.406;2022-10-16T09:32:18;17.80;99.90
25963;DHT22;13760;52.588;13.406;2022-10-16T09:34:53;17.80;99.90
25963;DHT22;13760;52.588;13.406;2022-10-16T09:37:21;17.80;99.90
25963;DHT22;13760;52.588;13.406;2022-10-16T09:39:52;17.90;99.90
25963;DHT22;13760;52.588;13.406;2022-10-16T09:42:54;17.90;99.90
25963;DHT22;13760;52.588;13.406;2022-10-16T09:45:21;17.90;99.90
25963;DHT22;13760;52.588;13.406;2022-10-16T09:47:48;17.90;99.90
25963;DHT22;13760;52.588;13.406;2022-10-16T09:50:25;18.00;99.90
25963;DHT22;13760;52.588;13.406;2022-10-16T09:53:05;18.00;99.90
25963;DHT22;13760;52.588;13.406;2022-10-16T09:55:31;18.00;99.90
25963;DHT22;13760;52.588;13.406;2022-10-16T09:57:56;18.10;99.90
25963;DHT22;13760;52.588;13.406;2022-10-16T10:00:23;18.20;99.90
25963;DHT22;13760;52.588;13.406;2022-10-16T10:02:49;18.20;99.90
25963;DHT22;13760;52.588;13.406;2022-10-16T10:05:24;18.40;99.90
25963;DHT22;13760;52.588;13.406;2022-10-16T10:07:58;18.50;99.90
25963;DHT22;13760;52.588;13.406;2022-10-16T10:10:32;18.50;99.90
25963;DHT22;13760;52.588;13.406;2022-10-16T10:12:58;18.50;99.90
25963;DHT22;13760;52.588;13.406;2022-10-16T10:15:25;18.50;99.90
25963;DHT22;13760;52.588;13.406;2022-10-16T10:17:54;18.50;99.90
25963;DHT22;13760;52.588;13.406;2022-10-16T10:20:32;18.50;99.90
25963;DHT22;13760;52.588;13.406;2022-10-16T10:23:00;18.50;99.90
25963;DHT22;13760;52.588;13.406;2022-10-16T10:31:03;18.40;99.90
25963;DHT22;13760;52.588;13.406;2022-10-16T10:33:50;18.40;99.90
25963;DHT22;13760;52.588;13.406;2022-10-16T10:36:34;18.40;99.90
25963;DHT22;13760;52.588;13.406;2022-10-16T10:39:08;18.30;99.90
25963;DHT22;13760;52.588;13.406;2022-10-16T10:44:37;18.40;99.90
25963;DHT22;13760;52.588;13.406;2022-10-16T10:49:54;18.50;99.90
25963;DHT22;13760;52.588;13.406;2022-10-16T11:05:46;19.40;99.90
25963;DHT22;13760;52.588;13.406;2022-10-16T11:08:21;19.50;99.90
25963;DHT22;13760;52.588;13.406;2022-10-16T11:13:39;19.40;99.90
25963;DHT22;13760;52.588;13.406;2022-10-16T11:16:19;19.40;99.90
25963;DHT22;13760;52.588;13.406;2022-10-16T11:21:22;19.30;99.90
25963;DHT22;13760;52.588;13.406;2022-10-16T11:24:15;19.30;99.90
25963;DHT22;13760;52.588;13.406;2022-10-16T11:26:43;19.30;99.90
25963;DHT22;13760;52.588;13.406;2022-10-16T11:29:26;19.30;99.90
25963;DHT22;13760;52.588;13.406;2022-10-16T11:32:19;19.20;99.90
25963;DHT22;13760;52.588;13.406;2022-10-16T11:34:53;19.20;99.90
25963;DHT22;13760;52.588;13.406;2022-10-16T11:37:25;19.20;99.90
25963;DHT22;13760;52.588;13.406;2022-10-16T11:39:54;19.20;99.90
25963;DHT22;13760;52.588;13.406;2022-10-16T11:42:32;19.20;99.90
25963;DHT22;13760;52.588;13.406;2022-10-16T11:47:57;19.50;99.90
25963;DHT22;13760;52.588;13.406;2022-10-16T11:50:38;19.60;99.90
25963;DHT22;13760;52.588;13.406;2022-10-16T11:55:49;19.80;99.90
25963;DHT22;13760;52.588;13.406;2022-10-16T11:58:41;20.00;99.90
25963;DHT22;13760;52.588;13.406;2022-10-16T12:01:44;20.10;99.90
25963;DHT22;13760;52.588;13.406;2022-10-16T12:04:39;20.30;99.90
25963;DHT22;13760;52.588;13.406;2022-10-16T12:07:24;20.50;99.90
25963;DHT22;13760;52.588;13.406;2022-10-16T12:09:56;20.50;99.90
25963;DHT22;13760;52.588;13.406;2022-10-16T12:15:21;20.70;99.90
25963;DHT22;13760;52.588;13.406;2022-10-16T12:17:47;20.70;99.90
25963;DHT22;13760;52.588;13.406;2022-10-16T12:22:54;20.80;99.90
25963;DHT22;13760;52.588;13.406;2022-10-16T12:25:33;20.70;99.90
25963;DHT22;13760;52.588;13.406;2022-10-16T12:28:20;20.80;99.90
25963;DHT22;13760;52.588;13.406;2022-10-16T12:30:54;20.90;99.90
25963;DHT22;13760;52.588;13.406;2022-10-16T12:33:23;21.00;99.90
25963;DHT22;13760;52.588;13.406;2022-10-16T12:35:50;21.10;99.90
25963;DHT22;13760;52.588;13.406;2022-10-16T12:38:38;21.10;99.90
25963;DHT22;13760;52.588;13.406;2022-10-16T12:41:11;21.20;99.90
25963;DHT22;13760;52.588;13.406;2022-10-16T12:43:45;21.30;99.90
25963;DHT22;13760;52.588;13.406;2022-10-16T12:48:39;21.40;99.90
25963;DHT22;13760;52.588;13.406;2022-10-16T12:51:25;21.50;99.90
25963;DHT22;13760;52.588;13.406;2022-10-16T13:00:21;21.70;99.90
25963;DHT22;13760;52.588;13.406;2022-10-16T13:06:09;21.90;99.90
25963;DHT22;13760;52.588;13.406;2022-10-16T13:09:33;21.90;99.90
25963;DHT22;13760;52.588;13.406;2022-10-16T13:20:21;22.00;99.90
25963;DHT22;13760;52.588;13.406;2022-10-16T13:23:26;22.00;99.90
25963;DHT22;13760;52.588;13.406;2022-10-16T13:28:35;22.00;99.90
25963;DHT22;13760;52.588;13.406;2022-10-16T13:31:04;22.10;99.90
25963;DHT22;13760;52.588;13.406;2022-10-16T13:36:01;22.10;99.90
25963;DHT22;13760;52.588;13.406;2022-10-16T13:38:32;22.00;99.90
25963;DHT22;13760;52.588;13.406;2022-10-16T13:41:02;22.10;99.90
25963;DHT22;13760;52.588;13.406;2022-10-16T13:46:22;21.80;99.90
25963;DHT22;13760;52.588;13.406;2022-10-16T13:49:03;21.70;99.90
25963;DHT22;13760;52.588;13.406;2022-10-16T13:51:30;21.60;99.90
25963;DHT22;13760;52.588;13.406;2022-10-16T13:53:57;21.50;99.90
25963;DHT22;13760;52.588;13.406;2022-10-16T13:56:26;21.50;99.90
25963;DHT22;13760;52.588;13.406;2022-10-16T13:59:26;21.50;99.90
25963;DHT22;13760;52.588;13.406;2022-10-16T14:01:56;21.50;99.90
25963;DHT22;13760;52.588;13.406;2022-10-16T14:04:23;21.30;99.90
25963;DHT22;13760;52.588;13.406;2022-10-16T14:06:51;21.30;99.90
25963;DHT22;13760;52.588;13.406;2022-10-16T14:09:30;21.30;99.90
25963;DHT22;13760;52.588;13.406;2022-10-16T14:12:02;21.20;99.90
25963;DHT22;13760;52.588;13.406;2022-10-16T14:14:34;21.10;99.90
25963;DHT22;13760;52.588;13.406;2022-10-16T14:17:02;21.10;99.90
25963;DHT22;13760;52.588;13.406;2022-10-16T14:19:29;21.00;99.90
25963;DHT22;13760;52.588;13.406;2022-10-16T14:21:56;20.80;99.90
25963;DHT22;13760;52.588;13.406;2022-10-16T14:24:33;20.80;99.90
25963;DHT22;13760;52.588;13.406;2022-10-16T14:27:01;20.60;99.90
25963;DHT22;13760;52.588;13.406;2022-10-16T14:29:31;20.50;99.90
25963;DHT22;13760;52.588;13.406;2022-10-16T14:32:20;20.40;99.90
25963;DHT22;13760;52.588;13.406;2022-10-16T14:34:53;20.50;99.90
25963;DHT22;13760;52.588;13.406;2022-10-16T14:37:27;20.30;99.90
25963;DHT22;13760;52.588;13.406;2022-10-16T14:39:54;20.30;99.90
25963;DHT22;13760;52.588;13.406;2022-10-16T14:42:22;20.10;99.90
25963;DHT22;13760;52.588;13.406;2022-10-16T14:44:52;20.10;99.90
25963;DHT22;13760;52.588;13.406;2022-10-16T14:47:21;20.00;99.90
25963;DHT22;13760;52.588;13.406;2022-10-16T14:49:52;19.90;99.90
25963;DHT22;13760;52.588;13.406;2022-10-16T14:52:20;19.90;99.90
25963;DHT22;13760;52.588;13.406;2022-10-16T14:54:48;19.90;99.90
25963;DHT22;13760;52.588;13.406;2022-10-16T14:57:23;19.90;99.90
25963;DHT22;13760;52.588;13.406;2022-10-16T14:59:49;19.90;99.90
25963;DHT22;13760;52.588;13.406;2022-10-16T15:02:31;20.00;99.90
25963;DHT22;13760;52.588;13.406;2022-10-16T15:04:59;19.90;99.90
25963;DHT22;13760;52.588;13.406;2022-10-16T15:07:36;19.90;99.90
25963;DHT22;13760;52.588;13.406;2022-10-16T15:10:02;19.90;99.90
25963;DHT22;13760;52.588;13.406;2022-10-16T15:12:28;19.90;99.90
25963;DHT22;13760;52.588;13.406;2022-10-16T15:14:53;19.80;99.90
25963;DHT22;13760;52.588;13.406;2022-10-16T15:17:19;19.80;99.90
25963;DHT22;13760;52.588;13.406;2022-10-16T15:19:44;19.70;99.90
25963;DHT22;13760;52.588;13.406;2022-10-16T15:22:12;19.60;99.90
25963;DHT22;13760;52.588;13.406;2022-10-16T15:27:30;19.50;99.90
25963;DHT22;13760;52.588;13.406;2022-10-16T15:29:59;19.40;99.90
25963;DHT22;13760;52.588;13.406;2022-10-16T15:32:28;19.30;99.90
25963;DHT22;13760;52.588;13.406;2022-10-16T15:34:54;19.20;99.90
25963;DHT22;13760;52.588;13.406;2022-10-16T15:40:06;19.10;99.90
25963;DHT22;13760;52.588;13.406;2022-10-16T15:42:39;19.00;99.90
25963;DHT22;13760;52.588;13.406;2022-10-16T15:48:29;18.90;99.90
25963;DHT22;13760;52.588;13.406;2022-10-16T15:50:55;18.80;99.90
25963;DHT22;13760;52.588;13.406;2022-10-16T15:53:21;18.70;99.90
25963;DHT22;13760;52.588;13.406;2022-10-16T15:55:47;18.60;99.90
25963;DHT22;13760;52.588;13.406;2022-10-16T15:58:12;18.60;99.90
25963;DHT22;13760;52.588;13.406;2022-10-16T16:00:53;18.40;99.90
25963;DHT22;13760;52.588;13.406;2022-10-16T16:03:33;18.40;99.90
25963;DHT22;13760;52.588;13.406;2022-10-16T16:06:12;18.30;99.90
25963;DHT22;13760;52.588;13.406;2022-10-16T16:08:45;18.20;99.90
25963;DHT22;13760;52.588;13.406;2022-10-16T16:11:13;18.10;99.90
25963;DHT22;13760;52.588;13.406;2022-10-16T16:13:40;18.00;99.90
25963;DHT22;13760;52.588;13.406;2022-10-16T16:16:11;17.90;99.90
25963;DHT22;13760;52.588;13.406;2022-10-16T16:18:37;17.70;99.90
25963;DHT22;13760;52.588;13.406;2022-10-16T16:21:04;17.60;99.90
25963;DHT22;13760;52.588;13.406;2022-10-16T16:23:37;17.40;99.90
25963;DHT22;13760;52.588;13.406;2022-10-16T16:26:14;17.30;99.90
25963;DHT22;13760;52.588;13.406;2022-10-16T16:28:41;17.10;99.90
25963;DHT22;13760;52.588;13.406;2022-10-16T16:31:07;17.00;99.90
25963;DHT22;13760;52.588;13.406;2022-10-16T16:33:33;16.90;99.90
25963;DHT22;13760;52.588;13.406;2022-10-16T16:36:01;16.70;99.90
25963;DHT22;13760;52.588;13.406;2022-10-16T16:38:27;16.60;99.90
25963;DHT22;13760;52.588;13.406;2022-10-16T16:40:53;16.60;99.90
25963;DHT22;13760;52.588;13.406;2022-10-16T16:43:26;16.50;99.90
25963;DHT22;13760;52.588;13.406;2022-10-16T16:45:56;16.40;99.90
25963;DHT22;13760;52.588;13.406;2022-10-16T16:48:31;16.30;99.90
25963;DHT22;13760;52.588;13.406;2022-10-16T16:53:28;16.00;99.90
25963;DHT22;13760;52.588;13.406;2022-10-16T16:55:54;15.90;99.90
25963;DHT22;13760;52.588;13.406;2022-10-16T16:58:19;15.90;99.90
25963;DHT22;13760;52.588;13.406;2022-10-16T17:00:46;15.70;99.90
25963;DHT22;13760;52.588;13.406;2022-10-16T17:04:16;15.70;99.90
25963;DHT22;13760;52.588;13.406;2022-10-16T17:06:38;15.50;99.90
25963;DHT22;13760;52.588;13.406;2022-10-16T17:09:07;15.50;99.90
25963;DHT22;13760;52.588;13.406;2022-10-16T17:11:33;15.40;99.90
25963;DHT22;13760;52.588;13.406;2022-10-16T17:14:00;15.30;99.90
25963;DHT22;13760;52.588;13.406;2022-10-16T17:16:32;15.20;99.90
25963;DHT22;13760;52.588;13.406;2022-10-16T17:19:03;15.20;99.90
25963;DHT22;13760;52.588;13.406;2022-10-16T17:21:29;15.00;99.90
25963;DHT22;13760;52.588;13.406;2022-10-16T17:23:57;15.00;99.90
25963;DHT22;13760;52.588;13.406;2022-10-16T17:26:23;14.90;99.90
25963;DHT22;13760;52.588;13.406;2022-10-16T17:28:59;14.80;99.90
25963;DHT22;13760;52.588;13.406;2022-10-16T17:31:32;14.80;99.90